Toby Nainggolan

Chief Scout - Waasland-Beveren
20 Feb 2028
Sunday
Process

Personality

Adaptability (4) Ambition (11) Controversy (10) Loyalty (3) Pressure (1) Professionalism (16) Sportsmanship (7) Temperament (4)

Profile

Coaching Style Democratic
License National A
Determination 5
Man Management 6
Motivating 6
Discipline 4
Job Satisfaction
100%
Fatigue
0%
Role Chief Scout
Wage 11.0K p/w
Contract 14.03.2028

Performance

Behaviour Good
Training Effectiveness
28%
Player Development
15%
Injury Prevention
40%
Tactical Implementation
20%

Recent Events

Contract negotiation started now
Attended a recruitment meeting now
Attended a recruitment meeting now
Recommended a transfer target now
Recommended a transfer target now
Contract negotiation started now
Contract negotiation started now
Contract negotiation started now

Currently Monitoring

96
Player Club Status Ability Confidence Watched Last Observed Latest Vote
Dion Beljo Standard Liege Lost 131 / 132 66% 1 01.06.2027 Approve
Shota Shekiladze Akhmat Grozny Negotiating 110 / 110 66% 1 01.06.2027 Approve
Themba Ngcobo SuperSport United Active 128 / 113 40% 4 25.01.2027 Monitor
Cian Ashford Cardiff City Active 121 / 119 40% 1 31.12.2026 -
Senny Mayulu Paris Saint-Germain Active 139 / 154 40% 1 31.12.2026 -
Cameron Archer Southampton Active 121 / 120 40% 1 30.12.2026 -
Harry Leonard Peterborough United Active 111 / 101 40% 2 28.12.2026 -
Banou Cissé Real Bamako Active 97 / 106 40% 1 28.12.2026 -
Jayden Wareham Barnet Active 108 / 113 40% 1 28.12.2026 -
Mandla Mahlangu Ajax Cape Town Active 103 / 97 40% 3 27.12.2026 -
Ahmed Kutucu Konyaspor Active 127 / 104 40% 1 27.12.2026 -
Ronald Swansea City Active 130 / 121 40% 1 27.12.2026 -
Thomas van den Belt Twente Active 122 / 132 40% 1 26.12.2026 -
Zeidane Inoussa Swansea City Active 124 / 130 40% 1 25.12.2026 -
Patrik Wålemark Lech Active 126 / 110 40% 1 25.12.2026 -
Ruben van Bommel Ferencvaros Active 145 / 133 40% 8 24.12.2026 -
Tommy Conway Middlesbrough Active 133 / 117 40% 3 22.12.2026 -
Luis Vázquez Birmingham Active 123 / 136 40% 3 22.12.2026 -
Joe Gelhardt Hull City Active 134 / 138 40% 3 22.12.2026 -
Sorba Thomas Stoke City Active 139 / 124 40% 2 22.12.2026 -
Jens Odgaard Bologna Active 133 / 143 40% 1 20.12.2026 -
Ryotaro Araki Sint-Truiden Active 120 / 121 40% 1 18.12.2026 -
David Ankeye Zeleznicar Pancevo Active 120 / 118 40% 1 18.12.2026 -
Will Lankshear Middlesbrough Active 118 / 118 40% 1 17.12.2026 -
Jason Knight Bristol City Active 133 / 131 40% 1 17.12.2026 -
Giorgi Chakvetadze Watford Active 129 / 121 40% 1 17.12.2026 -
Rajmund Molnár Pogon Active 115 / 97 40% 1 14.12.2026 -
Youssef Dalouzi Renaissance Active 95 / 97 40% 2 13.12.2026 -
Alassana Jatta Notts County Active 99 / 104 40% 1 13.12.2026 -
Christian Saydee Wigan Athletic Active 114 / 114 40% 1 12.12.2026 -
Talles Magno Wolverhampton Active 123 / 129 40% 1 12.12.2026 -
Martin Sekulić Ural Active 105 / 109 40% 1 10.12.2026 -
Dávid Strelec Middlesbrough Active 135 / 148 40% 2 09.12.2026 -
Danyil Alefirenko Chornomorets Active 105 / 108 40% 1 08.12.2026 -
Evidence Makgopa Orlando Pirates Active 115 / 119 40% 1 07.12.2026 -
Endrick Real Madrid Active 146 / 158 40% 1 07.12.2026 -
Yousef Salech Cardiff City Active 124 / 119 40% 4 06.12.2026 -
Myron van Brederode KV Mechelen Active 117 / 120 40% 2 06.12.2026 -
Jacques Siwe Rubin Active 125 / 133 40% 2 06.12.2026 -
Ammar Ramadan DAC Dunajska Streda Active 131 / 108 40% 4 05.12.2026 -
Malik Mothersille Stockport County Active 114 / 112 40% 1 05.12.2026 -
Mathias Jørgensen Blackburn Rovers Active 121 / 120 40% 1 05.12.2026 -
Diego García Malmo FF Active 110 / 117 40% 2 02.12.2026 -
Morgan Whittaker Middlesbrough Active 136 / 119 40% 1 02.12.2026 -
Zeki Amdouni Burnley Active 140 / 129 40% 2 01.12.2026 -
Angelo Gattermayer Wolfsberger AC Active 122 / 116 40% 1 01.12.2026 -
Niklas Vesterlund Utrecht Active 118 / 106 40% 1 01.12.2026 -
Petar Stanić Ludogorets Active 139 / 140 40% 2 30.11.2026 -
Thibaud Verlinden OH Leuven Active 132 / 135 40% 3 30.11.2026 -
Carlos Vicente Birmingham Active 138 / 144 40% 2 27.11.2026 -
Łukasz Łakomy OH Leuven Active 115 / 115 40% 1 27.11.2026 -
Joshua Zirkzee Manchester United Active 147 / 145 40% 1 27.11.2026 -
Williams Manyama SuperSport United Active 108 / 117 40% 1 26.11.2026 -
Ethan Galbraith Swansea City Active 140 / 128 40% 1 26.11.2026 -
Tshepang Moremi Orlando Pirates Active 122 / 115 40% 2 24.11.2026 -
Georginio Rutter Brighton Active 139 / 155 40% 2 22.11.2026 -
Aune Heggebø West Bromwich Albion Active 131 / 118 40% 2 21.11.2026 -
Matt O'Riley Brighton Active 146 / 154 40% 2 21.11.2026 -
Josh Tymon Swansea City Active 124 / 110 40% 1 21.11.2026 -
Ilyas Ansah Hull City Active 129 / 123 40% 1 18.11.2026 -
Junior Onana Zamalek Active 130 / 126 40% 1 17.11.2026 -
Denzel Jubitana Neftchi Active 129 / 113 40% 1 15.11.2026 -
Kenan Dervišagić Floriana Active 107 / 106 40% 1 14.11.2026 -
Sead Hakšabanović Malmo FF Active 115 / 126 40% 2 12.11.2026 -
Lorent Tolaj Plymouth Argyle Active 112 / 108 40% 1 12.11.2026 -
Suleiman Camara Slovan Bratislava Active 128 / 107 40% 1 12.11.2026 -
Thomas Claes Zulte Waregem Active 113 / 130 40% 1 11.11.2026 -
Assad Al Hamlawi Universitatea Craiova Active 124 / 102 40% 1 10.11.2026 -
Kwame Opoku Asante Kotoko Active 101 / 81 40% 1 09.11.2026 -
Daniel Karlsbakk Sarpsborg 08 Active 119 / 143 40% 1 09.11.2026 -
Bénie Traoré New York City Active 129 / 127 40% 2 07.11.2026 -
Wessam Abou Ali Columbus Crew Active 124 / 130 40% 1 07.11.2026 -
Ramiro Ruiz Rodríguez Atlético Tucumán Active 127 / 136 40% 1 05.11.2026 -
Rilind Nivokazi Sion Active 116 / 125 40% 1 04.11.2026 -
Tobias Sommer Zwolle Active 107 / 119 40% 2 03.11.2026 -
Elias Achouri San Diego Football Club Active 145 / 120 40% 1 02.11.2026 -
Nicolás Cordero Aldosivi Active 121 / 108 40% 2 31.10.2026 -
Alexander Aravena Portland Timbers Active 134 / 111 40% 1 28.10.2026 -
Jules Armand Kooh Dynamo Douala Active 111 / 85 40% 2 26.10.2026 -
Peter Christiansen Viking Active 113 / 121 40% 1 25.10.2026 -
Santiago Sala Güemes Active 118 / 116 40% 2 23.10.2026 -
Misael Sosa Godoy Cruz Active 102 / 104 40% 1 23.10.2026 -
Agustín Módica Gimnasia y Esgrima Active 115 / 129 40% 2 21.10.2026 -
Lucas Carrizo Plaza Colonia Active 115 / 124 40% 1 21.10.2026 -
Luka Reischl ADO Den Haag Active 104 / 114 40% 1 20.10.2026 -
Kévin Denkey FC Cincinnati Active 126 / 146 40% 1 19.10.2026 -
Jeong Sang-Bin St. Louis CITY SC Active 105 / 121 40% 1 17.10.2026 -
Dávid Ďuriš Rosenborg Active 132 / 114 40% 1 13.10.2026 -
Agustín Gallo Tristán Suárez Active 118 / 93 40% 1 13.10.2026 -
Marco Pašalić Orlando City Active 117 / 133 40% 1 09.10.2026 -
Joaquín Gho Argentinos Juniors Active 120 / 122 40% 1 09.10.2026 -
Michele Šego Hajduk Split Active 127 / 104 40% 1 08.10.2026 -
Boubacar Fofana Sochaux Active 119 / 120 40% 1 02.08.2026 -
Jhonatan Candia Barracas Central Active 111 / 114 40% 1 02.08.2026 -
Maximiliano Gómez Nacional Active 133 / 108 40% 1 02.08.2026 -
Djibril Coulibaly Real Bamako Active 100 / 92 40% 1 01.08.2026 -